Aeroporto :
LOGIN :

Iscrizione | Disclaimer

   EN    FR    IT 

 










Sommario :    VFR   VFR Marginale   IFR   IFR Intensivo   IFR Molto Intensivo
Visibilità : 
Base nubi : 
>= 8 km
>= 3000ft
5 / 8 km
1000 / 3000 ft
1500m / 5 km
500 / 1000 ft
800 / 1500m
200 / 500 ft
< 800m
< 200 ft
Simboli :   Temporali  Nebbia  Neve Forte  Precipitazioni Forti  Vento > 20 kt
SIGMETs :   Varie  Temporali  Ghiacco  Turbolenza  Onda orograficha  Ceneri Vulcaniche






- Altitudine del aeroporto : 135 ft
- Codice IATA : EDI


EGPH - Edinburgh

ULTIMO METAR :
  • 242250Z 24006KT CAVOK 08/06 Q1031

METARs OBSOLETI :
  • 242220Z 23005KT CAVOK 09/07 Q1030
  • 242150Z 20004KT CAVOK 10/07 Q1030
  • 242120Z 26004KT CAVOK 10/08 Q1030
  • 242050Z 26005KT 230V300 CAVOK 12/08 Q1030

TAF TAF EGPH
Valido dal 24 a 18 ore il 25 a 18 ore UTC


241659Z 2418/2518 28012KT 9999 FEW020
BECMG 2418/2421 22006KT
PROB30 2500/2505 6000
PROB30
TEMPO 2512/2518 23015G25KT
ATIS : +44 131 339 2823



MetMap, La meteo Aeronautica in un colpo d'occhio ! - Copyright ORBIFLY Dicembre 2007 - Disclaimer

ORBIFLY MET'MAP TEAM :

Programmazione e sviluppo : Alexandra Zaïnal
Concezione : Baudouin d'Aumeries
Aiuto per la programmazione : Marc-Olivier Méhu
Supporto tecnico e logistico : Manuel Goepfert
Aiuto per la traduzione : Arnaldo La Scala

Contatto : metmap@orbifly.com




FONTI E CREDITI :

   NOAA